sensor_id;sensor_type;location;lat;lon;timestamp;P1;durP1;ratioP1;P2;durP2;ratioP2
26920;SDS011;14483;47.844;9.660;2023-08-12T00:01:33;6.10;;;2.88;;
26920;SDS011;14483;47.844;9.660;2023-08-12T00:04:00;6.70;;;2.60;;
26920;SDS011;14483;47.844;9.660;2023-08-12T00:06:26;7.88;;;3.00;;
26920;SDS011;14483;47.844;9.660;2023-08-12T00:08:53;8.35;;;2.63;;
26920;SDS011;14483;47.844;9.660;2023-08-12T00:11:19;11.95;;;3.20;;
26920;SDS011;14483;47.844;9.660;2023-08-12T00:13:46;4.47;;;2.58;;
26920;SDS011;14483;47.844;9.660;2023-08-12T00:16:13;6.22;;;2.42;;
26920;SDS011;14483;47.844;9.660;2023-08-12T00:18:40;6.90;;;2.65;;
26920;SDS011;14483;47.844;9.660;2023-08-12T00:21:06;8.13;;;2.75;;
26920;SDS011;14483;47.844;9.660;2023-08-12T00:23:37;13.15;;;3.35;;
26920;SDS011;14483;47.844;9.660;2023-08-12T00:26:04;11.43;;;3.00;;
26920;SDS011;14483;47.844;9.660;2023-08-12T00:28:30;6.63;;;2.50;;
26920;SDS011;14483;47.844;9.660;2023-08-12T00:30:56;9.45;;;2.80;;
26920;SDS011;14483;47.844;9.660;2023-08-12T00:33:24;10.32;;;2.70;;
26920;SDS011;14483;47.844;9.660;2023-08-12T00:35:50;13.10;;;3.13;;
26920;SDS011;14483;47.844;9.660;2023-08-12T00:38:17;4.53;;;2.83;;
26920;SDS011;14483;47.844;9.660;2023-08-12T00:40:43;10.80;;;2.58;;
26920;SDS011;14483;47.844;9.660;2023-08-12T00:43:09;3.85;;;2.30;;
26920;SDS011;14483;47.844;9.660;2023-08-12T00:45:36;11.45;;;2.72;;
26920;SDS011;14483;47.844;9.660;2023-08-12T00:48:03;3.95;;;2.08;;
26920;SDS011;14483;47.844;9.660;2023-08-12T00:50:31;7.78;;;2.17;;
26920;SDS011;14483;47.844;9.660;2023-08-12T00:52:58;5.65;;;2.30;;
26920;SDS011;14483;47.844;9.660;2023-08-12T00:55:24;3.85;;;2.50;;
26920;SDS011;14483;47.844;9.660;2023-08-12T00:57:51;4.22;;;2.60;;
26920;SDS011;14483;47.844;9.660;2023-08-12T01:00:17;2.85;;;2.00;;
26920;SDS011;14483;47.844;9.660;2023-08-12T01:02:45;3.72;;;2.30;;
26920;SDS011;14483;47.844;9.660;2023-08-12T01:05:13;7.10;;;2.90;;
26920;SDS011;14483;47.844;9.660;2023-08-12T01:07:41;4.85;;;2.47;;
26920;SDS011;14483;47.844;9.660;2023-08-12T01:10:07;5.88;;;2.38;;
26920;SDS011;14483;47.844;9.660;2023-08-12T01:12:37;7.88;;;2.72;;
26920;SDS011;14483;47.844;9.660;2023-08-12T01:15:05;9.40;;;2.92;;
26920;SDS011;14483;47.844;9.660;2023-08-12T01:17:33;4.82;;;2.45;;
26920;SDS011;14483;47.844;9.660;2023-08-12T01:20:00;12.18;;;2.65;;
26920;SDS011;14483;47.844;9.660;2023-08-12T01:22:28;6.10;;;2.90;;
26920;SDS011;14483;47.844;9.660;2023-08-12T01:24:58;7.03;;;2.38;;
26920;SDS011;14483;47.844;9.660;2023-08-12T01:27:25;3.70;;;2.28;;
26920;SDS011;14483;47.844;9.660;2023-08-12T01:29:51;4.18;;;2.65;;
26920;SDS011;14483;47.844;9.660;2023-08-12T01:32:20;5.88;;;3.30;;
26920;SDS011;14483;47.844;9.660;2023-08-12T01:34:50;4.10;;;2.53;;
26920;SDS011;14483;47.844;9.660;2023-08-12T01:37:17;6.25;;;2.45;;
26920;SDS011;14483;47.844;9.660;2023-08-12T01:39:47;6.13;;;2.45;;
26920;SDS011;14483;47.844;9.660;2023-08-12T01:42:15;3.65;;;2.53;;
26920;SDS011;14483;47.844;9.660;2023-08-12T01:44:42;8.23;;;2.40;;
26920;SDS011;14483;47.844;9.660;2023-08-12T01:47:08;7.45;;;2.58;;
26920;SDS011;14483;47.844;9.660;2023-08-12T01:49:35;7.35;;;2.80;;
26920;SDS011;14483;47.844;9.660;2023-08-12T01:52:01;5.53;;;2.83;;
26920;SDS011;14483;47.844;9.660;2023-08-12T01:54:27;7.32;;;2.90;;
26920;SDS011;14483;47.844;9.660;2023-08-12T01:56:58;5.45;;;2.58;;
26920;SDS011;14483;47.844;9.660;2023-08-12T01:59:25;4.32;;;3.45;;
26920;SDS011;14483;47.844;9.660;2023-08-12T02:01:52;5.65;;;2.85;;
26920;SDS011;14483;47.844;9.660;2023-08-12T02:04:18;5.97;;;2.72;;
26920;SDS011;14483;47.844;9.660;2023-08-12T02:06:44;6.35;;;2.83;;
26920;SDS011;14483;47.844;9.660;2023-08-12T02:09:11;3.97;;;2.45;;
26920;SDS011;14483;47.844;9.660;2023-08-12T02:11:37;9.95;;;3.08;;
26920;SDS011;14483;47.844;9.660;2023-08-12T02:14:04;3.75;;;2.50;;
26920;SDS011;14483;47.844;9.660;2023-08-12T02:16:32;6.95;;;2.10;;
26920;SDS011;14483;47.844;9.660;2023-08-12T02:18:58;6.97;;;2.63;;
26920;SDS011;14483;47.844;9.660;2023-08-12T02:21:23;5.15;;;2.30;;
26920;SDS011;14483;47.844;9.660;2023-08-12T02:23:50;8.55;;;2.58;;
26920;SDS011;14483;47.844;9.660;2023-08-12T02:26:16;7.43;;;2.55;;
26920;SDS011;14483;47.844;9.660;2023-08-12T02:28:42;5.32;;;2.60;;
26920;SDS011;14483;47.844;9.660;2023-08-12T02:31:09;8.27;;;2.90;;
26920;SDS011;14483;47.844;9.660;2023-08-12T02:33:38;5.38;;;2.30;;
26920;SDS011;14483;47.844;9.660;2023-08-12T02:36:04;3.63;;;2.25;;
26920;SDS011;14483;47.844;9.660;2023-08-12T02:38:30;7.05;;;2.67;;
26920;SDS011;14483;47.844;9.660;2023-08-12T02:40:57;4.82;;;2.13;;
26920;SDS011;14483;47.844;9.660;2023-08-12T02:43:23;6.72;;;2.65;;
26920;SDS011;14483;47.844;9.660;2023-08-12T02:45:50;5.10;;;3.03;;
26920;SDS011;14483;47.844;9.660;2023-08-12T02:48:16;3.30;;;2.33;;
26920;SDS011;14483;47.844;9.660;2023-08-12T02:50:44;7.60;;;2.72;;
26920;SDS011;14483;47.844;9.660;2023-08-12T02:53:10;6.18;;;2.38;;
26920;SDS011;14483;47.844;9.660;2023-08-12T02:55:36;13.95;;;3.50;;
26920;SDS011;14483;47.844;9.660;2023-08-12T02:58:03;7.72;;;3.08;;
26920;SDS011;14483;47.844;9.660;2023-08-12T03:00:29;8.18;;;2.88;;
26920;SDS011;14483;47.844;9.660;2023-08-12T03:02:56;5.07;;;2.75;;
26920;SDS011;14483;47.844;9.660;2023-08-12T03:05:22;7.20;;;2.92;;
26920;SDS011;14483;47.844;9.660;2023-08-12T03:07:50;7.40;;;3.13;;
26920;SDS011;14483;47.844;9.660;2023-08-12T03:10:17;6.88;;;3.35;;
26920;SDS011;14483;47.844;9.660;2023-08-12T03:12:44;4.32;;;2.25;;
26920;SDS011;14483;47.844;9.660;2023-08-12T03:15:10;5.35;;;3.17;;
26920;SDS011;14483;47.844;9.660;2023-08-12T03:17:36;4.03;;;2.50;;
26920;SDS011;14483;47.844;9.660;2023-08-12T03:20:04;3.70;;;2.50;;
26920;SDS011;14483;47.844;9.660;2023-08-12T03:22:31;4.10;;;3.10;;
26920;SDS011;14483;47.844;9.660;2023-08-12T03:24:58;7.10;;;3.05;;
26920;SDS011;14483;47.844;9.660;2023-08-12T03:27:25;6.65;;;2.92;;
26920;SDS011;14483;47.844;9.660;2023-08-12T03:29:51;5.00;;;2.75;;
26920;SDS011;14483;47.844;9.660;2023-08-12T03:32:17;8.35;;;2.70;;
26920;SDS011;14483;47.844;9.660;2023-08-12T03:34:44;6.30;;;3.13;;
26920;SDS011;14483;47.844;9.660;2023-08-12T03:37:10;4.22;;;3.05;;
26920;SDS011;14483;47.844;9.660;2023-08-12T03:39:36;7.32;;;3.30;;
26920;SDS011;14483;47.844;9.660;2023-08-12T03:42:04;5.22;;;2.88;;
26920;SDS011;14483;47.844;9.660;2023-08-12T03:44:31;3.15;;;2.60;;
26920;SDS011;14483;47.844;9.660;2023-08-12T03:46:57;6.13;;;2.95;;
26920;SDS011;14483;47.844;9.660;2023-08-12T03:49:23;4.43;;;2.72;;
26920;SDS011;14483;47.844;9.660;2023-08-12T03:51:50;5.43;;;3.17;;
26920;SDS011;14483;47.844;9.660;2023-08-12T03:54:16;5.00;;;2.90;;
26920;SDS011;14483;47.844;9.660;2023-08-12T03:56:43;5.28;;;2.90;;
26920;SDS011;14483;47.844;9.660;2023-08-12T03:59:10;7.00;;;3.45;;
26920;SDS011;14483;47.844;9.660;2023-08-12T04:01:37;4.13;;;2.75;;
26920;SDS011;14483;47.844;9.660;2023-08-12T04:04:03;6.55;;;3.33;;
26920;SDS011;14483;47.844;9.660;2023-08-12T04:06:30;7.43;;;3.25;;
26920;SDS011;14483;47.844;9.660;2023-08-12T04:08:56;7.18;;;2.85;;
26920;SDS011;14483;47.844;9.660;2023-08-12T04:11:22;3.65;;;3.22;;
26920;SDS011;14483;47.844;9.660;2023-08-12T04:13:49;12.15;;;3.50;;
26920;SDS011;14483;47.844;9.660;2023-08-12T04:16:16;5.13;;;2.63;;
26920;SDS011;14483;47.844;9.660;2023-08-12T04:18:43;7.93;;;3.50;;
26920;SDS011;14483;47.844;9.660;2023-08-12T04:21:09;5.80;;;3.25;;
26920;SDS011;14483;47.844;9.660;2023-08-12T04:23:36;6.13;;;3.53;;
26920;SDS011;14483;47.844;9.660;2023-08-12T04:26:02;7.03;;;3.30;;
26920;SDS011;14483;47.844;9.660;2023-08-12T04:28:28;7.60;;;3.10;;
26920;SDS011;14483;47.844;9.660;2023-08-12T04:30:55;8.32;;;3.03;;
26920;SDS011;14483;47.844;9.660;2023-08-12T04:33:22;4.65;;;3.15;;
26920;SDS011;14483;47.844;9.660;2023-08-12T04:35:49;3.72;;;2.58;;
26920;SDS011;14483;47.844;9.660;2023-08-12T04:38:15;6.93;;;2.65;;
26920;SDS011;14483;47.844;9.660;2023-08-12T04:40:43;6.45;;;3.10;;
26920;SDS011;14483;47.844;9.660;2023-08-12T04:43:09;5.35;;;3.20;;
26920;SDS011;14483;47.844;9.660;2023-08-12T04:45:36;5.50;;;3.67;;
26920;SDS011;14483;47.844;9.660;2023-08-12T04:48:03;4.03;;;2.95;;
26920;SDS011;14483;47.844;9.660;2023-08-12T04:50:31;6.45;;;3.30;;
26920;SDS011;14483;47.844;9.660;2023-08-12T04:52:59;4.22;;;3.13;;
26920;SDS011;14483;47.844;9.660;2023-08-12T04:55:27;6.32;;;3.50;;
26920;SDS011;14483;47.844;9.660;2023-08-12T04:57:53;5.45;;;3.67;;
26920;SDS011;14483;47.844;9.660;2023-08-12T05:00:20;5.80;;;2.60;;
26920;SDS011;14483;47.844;9.660;2023-08-12T05:02:46;11.05;;;2.90;;
26920;SDS011;14483;47.844;9.660;2023-08-12T05:05:13;13.48;;;3.63;;
26920;SDS011;14483;47.844;9.660;2023-08-12T05:07:40;6.85;;;2.92;;
26920;SDS011;14483;47.844;9.660;2023-08-12T05:10:07;7.35;;;3.03;;
26920;SDS011;14483;47.844;9.660;2023-08-12T05:12:33;4.43;;;3.17;;
26920;SDS011;14483;47.844;9.660;2023-08-12T05:15:00;5.63;;;3.40;;
26920;SDS011;14483;47.844;9.660;2023-08-12T05:17:26;6.07;;;3.05;;
26920;SDS011;14483;47.844;9.660;2023-08-12T05:19:52;4.63;;;3.08;;
26920;SDS011;14483;47.844;9.660;2023-08-12T05:22:19;5.28;;;2.90;;
26920;SDS011;14483;47.844;9.660;2023-08-12T05:24:46;4.97;;;3.17;;
26920;SDS011;14483;47.844;9.660;2023-08-12T05:27:13;6.03;;;3.83;;
26920;SDS011;14483;47.844;9.660;2023-08-12T05:29:39;5.30;;;3.80;;
26920;SDS011;14483;47.844;9.660;2023-08-12T05:32:06;6.22;;;3.50;;
26920;SDS011;14483;47.844;9.660;2023-08-12T05:34:32;4.63;;;3.00;;
26920;SDS011;14483;47.844;9.660;2023-08-12T05:36:59;4.80;;;3.10;;
26920;SDS011;14483;47.844;9.660;2023-08-12T05:39:25;7.25;;;3.60;;
26920;SDS011;14483;47.844;9.660;2023-08-12T05:41:53;6.97;;;4.45;;
26920;SDS011;14483;47.844;9.660;2023-08-12T05:44:19;5.65;;;3.33;;
26920;SDS011;14483;47.844;9.660;2023-08-12T05:46:46;6.85;;;4.53;;
26920;SDS011;14483;47.844;9.660;2023-08-12T05:49:12;6.20;;;4.43;;
26920;SDS011;14483;47.844;9.660;2023-08-12T05:51:38;4.90;;;3.97;;
26920;SDS011;14483;47.844;9.660;2023-08-12T05:54:05;5.57;;;4.13;;
26920;SDS011;14483;47.844;9.660;2023-08-12T05:56:31;7.75;;;4.40;;
26920;SDS011;14483;47.844;9.660;2023-08-12T05:58:59;8.38;;;4.70;;
26920;SDS011;14483;47.844;9.660;2023-08-12T06:01:25;6.95;;;5.15;;
26920;SDS011;14483;47.844;9.660;2023-08-12T06:03:51;7.15;;;5.28;;
26920;SDS011;14483;47.844;9.660;2023-08-12T06:06:18;6.25;;;4.63;;
26920;SDS011;14483;47.844;9.660;2023-08-12T06:08:44;6.03;;;4.40;;
26920;SDS011;14483;47.844;9.660;2023-08-12T06:11:11;7.18;;;5.15;;
26920;SDS011;14483;47.844;9.660;2023-08-12T06:13:37;8.20;;;5.00;;
26920;SDS011;14483;47.844;9.660;2023-08-12T06:16:05;6.55;;;4.82;;
26920;SDS011;14483;47.844;9.660;2023-08-12T06:18:32;6.75;;;4.55;;
26920;SDS011;14483;47.844;9.660;2023-08-12T06:20:58;5.35;;;4.43;;
26920;SDS011;14483;47.844;9.660;2023-08-12T06:23:24;5.20;;;4.18;;
26920;SDS011;14483;47.844;9.660;2023-08-12T06:25:51;5.57;;;4.40;;
26920;SDS011;14483;47.844;9.660;2023-08-12T06:28:17;9.80;;;4.72;;
26920;SDS011;14483;47.844;9.660;2023-08-12T06:30:44;9.75;;;5.38;;
26920;SDS011;14483;47.844;9.660;2023-08-12T06:33:12;7.95;;;4.80;;
26920;SDS011;14483;47.844;9.660;2023-08-12T06:35:38;6.20;;;4.72;;
26920;SDS011;14483;47.844;9.660;2023-08-12T06:38:05;11.57;;;5.07;;
26920;SDS011;14483;47.844;9.660;2023-08-12T06:40:31;14.57;;;5.00;;
26920;SDS011;14483;47.844;9.660;2023-08-12T06:42:57;7.20;;;5.05;;
26920;SDS011;14483;47.844;9.660;2023-08-12T06:45:24;6.97;;;4.78;;
26920;SDS011;14483;47.844;9.660;2023-08-12T06:47:50;10.30;;;4.78;;
26920;SDS011;14483;47.844;9.660;2023-08-12T06:50:18;8.60;;;5.90;;
26920;SDS011;14483;47.844;9.660;2023-08-12T06:52:44;6.88;;;4.72;;
26920;SDS011;14483;47.844;9.660;2023-08-12T06:55:10;7.75;;;6.03;;
26920;SDS011;14483;47.844;9.660;2023-08-12T06:57:37;9.57;;;5.60;;
26920;SDS011;14483;47.844;9.660;2023-08-12T07:00:03;8.75;;;5.38;;
26920;SDS011;14483;47.844;9.660;2023-08-12T07:02:30;10.13;;;5.85;;
26920;SDS011;14483;47.844;9.660;2023-08-12T07:04:57;10.25;;;5.63;;
26920;SDS011;14483;47.844;9.660;2023-08-12T07:07:24;7.47;;;5.18;;
26920;SDS011;14483;47.844;9.660;2023-08-12T07:09:51;7.65;;;5.65;;
26920;SDS011;14483;47.844;9.660;2023-08-12T07:12:17;9.18;;;5.30;;
26920;SDS011;14483;47.844;9.660;2023-08-12T07:14:43;6.60;;;5.53;;
26920;SDS011;14483;47.844;9.660;2023-08-12T07:17:10;7.28;;;4.65;;
26920;SDS011;14483;47.844;9.660;2023-08-12T07:19:36;6.55;;;4.97;;
26920;SDS011;14483;47.844;9.660;2023-08-12T07:22:02;6.95;;;4.95;;
26920;SDS011;14483;47.844;9.660;2023-08-12T07:24:30;7.82;;;5.25;;
26920;SDS011;14483;47.844;9.660;2023-08-12T07:26:57;7.07;;;4.78;;
26920;SDS011;14483;47.844;9.660;2023-08-12T07:29:23;7.22;;;4.82;;
26920;SDS011;14483;47.844;9.660;2023-08-12T07:31:49;8.88;;;4.60;;
26920;SDS011;14483;47.844;9.660;2023-08-12T07:34:16;5.85;;;4.68;;
26920;SDS011;14483;47.844;9.660;2023-08-12T07:36:42;8.50;;;5.10;;
26920;SDS011;14483;47.844;9.660;2023-08-12T07:39:08;11.25;;;5.30;;
26920;SDS011;14483;47.844;9.660;2023-08-12T07:41:36;6.57;;;4.63;;
26920;SDS011;14483;47.844;9.660;2023-08-12T07:44:03;7.13;;;4.47;;
26920;SDS011;14483;47.844;9.660;2023-08-12T07:46:29;8.15;;;4.65;;
26920;SDS011;14483;47.844;9.660;2023-08-12T07:48:55;8.95;;;5.05;;
26920;SDS011;14483;47.844;9.660;2023-08-12T07:51:22;9.88;;;4.78;;
26920;SDS011;14483;47.844;9.660;2023-08-12T07:53:48;7.20;;;4.85;;
26920;SDS011;14483;47.844;9.660;2023-08-12T07:56:15;14.93;;;6.43;;
26920;SDS011;14483;47.844;9.660;2023-08-12T07:58:43;6.70;;;4.97;;
26920;SDS011;14483;47.844;9.660;2023-08-12T08:01:10;8.50;;;4.90;;
26920;SDS011;14483;47.844;9.660;2023-08-12T08:03:38;7.60;;;5.20;;
26920;SDS011;14483;47.844;9.660;2023-08-12T08:06:04;7.65;;;5.13;;
26920;SDS011;14483;47.844;9.660;2023-08-12T08:08:30;7.07;;;4.70;;
26920;SDS011;14483;47.844;9.660;2023-08-12T08:10:57;7.55;;;5.15;;
26920;SDS011;14483;47.844;9.660;2023-08-12T08:13:23;7.20;;;4.45;;
26920;SDS011;14483;47.844;9.660;2023-08-12T08:15:51;7.15;;;3.83;;
26920;SDS011;14483;47.844;9.660;2023-08-12T08:18:17;5.95;;;4.38;;
26920;SDS011;14483;47.844;9.660;2023-08-12T08:20:43;7.65;;;4.68;;
26920;SDS011;14483;47.844;9.660;2023-08-12T08:23:10;7.53;;;4.55;;
26920;SDS011;14483;47.844;9.660;2023-08-12T08:25:36;6.07;;;4.20;;
26920;SDS011;14483;47.844;9.660;2023-08-12T08:28:03;5.47;;;3.80;;
26920;SDS011;14483;47.844;9.660;2023-08-12T08:30:29;8.02;;;3.95;;
26920;SDS011;14483;47.844;9.660;2023-08-12T08:32:57;5.50;;;3.60;;
26920;SDS011;14483;47.844;9.660;2023-08-12T08:35:23;4.80;;;3.53;;
26920;SDS011;14483;47.844;9.660;2023-08-12T08:37:50;7.65;;;4.03;;
26920;SDS011;14483;47.844;9.660;2023-08-12T08:40:16;6.65;;;4.05;;
26920;SDS011;14483;47.844;9.660;2023-08-12T08:42:43;6.00;;;3.25;;
26920;SDS011;14483;47.844;9.660;2023-08-12T08:45:11;5.18;;;3.80;;
26920;SDS011;14483;47.844;9.660;2023-08-12T08:47:38;9.90;;;3.50;;
26920;SDS011;14483;47.844;9.660;2023-08-12T08:50:06;7.25;;;3.28;;
26920;SDS011;14483;47.844;9.660;2023-08-12T08:52:34;5.47;;;3.50;;
26920;SDS011;14483;47.844;9.660;2023-08-12T08:55:02;6.00;;;3.58;;
26920;SDS011;14483;47.844;9.660;2023-08-12T08:57:29;8.55;;;3.67;;
26920;SDS011;14483;47.844;9.660;2023-08-12T08:59:55;5.75;;;4.03;;
26920;SDS011;14483;47.844;9.660;2023-08-12T09:02:22;8.77;;;3.45;;
26920;SDS011;14483;47.844;9.660;2023-08-12T09:04:49;5.50;;;3.38;;
26920;SDS011;14483;47.844;9.660;2023-08-12T09:07:17;4.20;;;3.38;;
26920;SDS011;14483;47.844;9.660;2023-08-12T09:09:44;5.05;;;3.63;;
26920;SDS011;14483;47.844;9.660;2023-08-12T09:12:13;6.95;;;3.33;;
26920;SDS011;14483;47.844;9.660;2023-08-12T09:14:40;6.70;;;3.10;;
26920;SDS011;14483;47.844;9.660;2023-08-12T09:17:06;4.90;;;3.33;;
26920;SDS011;14483;47.844;9.660;2023-08-12T09:19:33;5.85;;;3.33;;
26920;SDS011;14483;47.844;9.660;2023-08-12T09:21:59;6.10;;;3.20;;
26920;SDS011;14483;47.844;9.660;2023-08-12T09:24:27;4.80;;;2.85;;
26920;SDS011;14483;47.844;9.660;2023-08-12T09:26:54;4.57;;;3.63;;
26920;SDS011;14483;47.844;9.660;2023-08-12T09:29:22;5.22;;;3.08;;
26920;SDS011;14483;47.844;9.660;2023-08-12T09:31:48;4.00;;;2.97;;
26920;SDS011;14483;47.844;9.660;2023-08-12T09:34:15;4.88;;;3.00;;
26920;SDS011;14483;47.844;9.660;2023-08-12T09:36:41;3.00;;;2.33;;
26920;SDS011;14483;47.844;9.660;2023-08-12T09:39:07;3.85;;;3.00;;
26920;SDS011;14483;47.844;9.660;2023-08-12T09:41:36;4.28;;;2.75;;
26920;SDS011;14483;47.844;9.660;2023-08-12T09:44:03;3.47;;;2.83;;
26920;SDS011;14483;47.844;9.660;2023-08-12T09:46:30;7.50;;;3.15;;
26920;SDS011;14483;47.844;9.660;2023-08-12T09:48:58;4.45;;;3.10;;
26920;SDS011;14483;47.844;9.660;2023-08-12T09:51:25;5.18;;;3.75;;
26920;SDS011;14483;47.844;9.660;2023-08-12T09:53:51;4.18;;;3.33;;
26920;SDS011;14483;47.844;9.660;2023-08-12T09:56:18;5.32;;;3.50;;
26920;SDS011;14483;47.844;9.660;2023-08-12T09:58:48;5.80;;;3.30;;
26920;SDS011;14483;47.844;9.660;2023-08-12T10:01:15;8.85;;;4.03;;
26920;SDS011;14483;47.844;9.660;2023-08-12T10:03:44;8.75;;;3.53;;
26920;SDS011;14483;47.844;9.660;2023-08-12T10:06:11;4.43;;;3.58;;
26920;SDS011;14483;47.844;9.660;2023-08-12T10:08:38;4.15;;;3.30;;
26920;SDS011;14483;47.844;9.660;2023-08-12T10:11:05;4.72;;;4.13;;
26920;SDS011;14483;47.844;9.660;2023-08-12T10:13:33;6.75;;;3.88;;
26920;SDS011;14483;47.844;9.660;2023-08-12T10:16:01;5.90;;;3.53;;
26920;SDS011;14483;47.844;9.660;2023-08-12T10:18:28;5.88;;;3.20;;
26920;SDS011;14483;47.844;9.660;2023-08-12T10:20:56;3.92;;;2.90;;
26920;SDS011;14483;47.844;9.660;2023-08-12T10:23:22;5.95;;;3.70;;
26920;SDS011;14483;47.844;9.660;2023-08-12T10:25:50;6.88;;;3.65;;
26920;SDS011;14483;47.844;9.660;2023-08-12T10:28:19;6.88;;;3.60;;
26920;SDS011;14483;47.844;9.660;2023-08-12T10:30:45;4.63;;;3.22;;
26920;SDS011;14483;47.844;9.660;2023-08-12T10:33:14;4.30;;;3.72;;
26920;SDS011;14483;47.844;9.660;2023-08-12T10:35:42;6.82;;;3.15;;
26920;SDS011;14483;47.844;9.660;2023-08-12T10:38:08;4.85;;;3.60;;
26920;SDS011;14483;47.844;9.660;2023-08-12T10:40:36;10.05;;;2.92;;
26920;SDS011;14483;47.844;9.660;2023-08-12T10:43:03;5.30;;;3.70;;
26920;SDS011;14483;47.844;9.660;2023-08-12T10:45:40;6.07;;;3.63;;
26920;SDS011;14483;47.844;9.660;2023-08-12T10:48:15;4.50;;;3.65;;
26920;SDS011;14483;47.844;9.660;2023-08-12T10:50:44;4.53;;;3.40;;
26920;SDS011;14483;47.844;9.660;2023-08-12T10:53:21;4.30;;;3.05;;
26920;SDS011;14483;47.844;9.660;2023-08-12T10:55:48;4.28;;;3.40;;
26920;SDS011;14483;47.844;9.660;2023-08-12T10:58:23;4.40;;;3.20;;
26920;SDS011;14483;47.844;9.660;2023-08-12T11:00:51;9.52;;;3.40;;
26920;SDS011;14483;47.844;9.660;2023-08-12T11:03:19;3.70;;;3.17;;
26920;SDS011;14483;47.844;9.660;2023-08-12T11:05:47;9.40;;;3.30;;
26920;SDS011;14483;47.844;9.660;2023-08-12T11:08:13;6.07;;;3.17;;
26920;SDS011;14483;47.844;9.660;2023-08-12T11:10:39;3.42;;;2.90;;
26920;SDS011;14483;47.844;9.660;2023-08-12T11:13:08;5.38;;;2.95;;
26920;SDS011;14483;47.844;9.660;2023-08-12T11:15:35;7.70;;;3.20;;
26920;SDS011;14483;47.844;9.660;2023-08-12T11:18:02;3.38;;;2.90;;
26920;SDS011;14483;47.844;9.660;2023-08-12T11:20:29;6.13;;;2.97;;
26920;SDS011;14483;47.844;9.660;2023-08-12T11:22:57;3.95;;;3.15;;
26920;SDS011;14483;47.844;9.660;2023-08-12T11:25:23;5.93;;;3.20;;
26920;SDS011;14483;47.844;9.660;2023-08-12T11:27:50;4.22;;;3.10;;
26920;SDS011;14483;47.844;9.660;2023-08-12T11:30:17;7.85;;;3.95;;
26920;SDS011;14483;47.844;9.660;2023-08-12T11:32:44;4.63;;;3.38;;
26920;SDS011;14483;47.844;9.660;2023-08-12T11:35:11;4.63;;;2.50;;
26920;SDS011;14483;47.844;9.660;2023-08-12T11:37:38;5.60;;;3.00;;
26920;SDS011;14483;47.844;9.660;2023-08-12T11:40:07;4.40;;;3.20;;
26920;SDS011;14483;47.844;9.660;2023-08-12T11:42:34;4.93;;;3.47;;
26920;SDS011;14483;47.844;9.660;2023-08-12T11:45:00;4.22;;;2.90;;
26920;SDS011;14483;47.844;9.660;2023-08-12T11:47:27;4.60;;;3.17;;
26920;SDS011;14483;47.844;9.660;2023-08-12T11:49:53;4.28;;;3.38;;
26920;SDS011;14483;47.844;9.660;2023-08-12T11:52:19;4.55;;;3.33;;
26920;SDS011;14483;47.844;9.660;2023-08-12T11:54:46;8.63;;;3.58;;
26920;SDS011;14483;47.844;9.660;2023-08-12T11:57:15;6.95;;;3.65;;
26920;SDS011;14483;47.844;9.660;2023-08-12T11:59:42;4.68;;;3.80;;
26920;SDS011;14483;47.844;9.660;2023-08-12T12:02:08;6.68;;;3.35;;
26920;SDS011;14483;47.844;9.660;2023-08-12T12:04:36;6.63;;;3.50;;
26920;SDS011;14483;47.844;9.660;2023-08-12T12:07:02;4.47;;;3.55;;
26920;SDS011;14483;47.844;9.660;2023-08-12T12:09:31;5.43;;;3.80;;
26920;SDS011;14483;47.844;9.660;2023-08-12T12:11:57;7.65;;;3.72;;
26920;SDS011;14483;47.844;9.660;2023-08-12T12:14:26;5.35;;;3.45;;
26920;SDS011;14483;47.844;9.660;2023-08-12T12:16:53;4.90;;;3.47;;
26920;SDS011;14483;47.844;9.660;2023-08-12T12:19:19;7.90;;;3.67;;
26920;SDS011;14483;47.844;9.660;2023-08-12T12:21:46;5.78;;;3.70;;
26920;SDS011;14483;47.844;9.660;2023-08-12T12:24:13;5.20;;;3.42;;
26920;SDS011;14483;47.844;9.660;2023-08-12T12:26:39;6.35;;;3.50;;
26920;SDS011;14483;47.844;9.660;2023-08-12T12:29:06;4.45;;;3.20;;
26920;SDS011;14483;47.844;9.660;2023-08-12T12:31:34;7.47;;;3.45;;
26920;SDS011;14483;47.844;9.660;2023-08-12T12:34:02;8.20;;;2.80;;
26920;SDS011;14483;47.844;9.660;2023-08-12T12:36:29;7.03;;;2.80;;
26920;SDS011;14483;47.844;9.660;2023-08-12T12:38:55;5.60;;;3.05;;
26920;SDS011;14483;47.844;9.660;2023-08-12T12:41:22;4.53;;;2.92;;
26920;SDS011;14483;47.844;9.660;2023-08-12T12:43:48;6.70;;;3.63;;
26920;SDS011;14483;47.844;9.660;2023-08-12T12:46:15;4.38;;;3.38;;
26920;SDS011;14483;47.844;9.660;2023-08-12T12:48:42;7.68;;;3.22;;
26920;SDS011;14483;47.844;9.660;2023-08-12T12:51:10;6.63;;;4.40;;
26920;SDS011;14483;47.844;9.660;2023-08-12T12:53:36;5.63;;;4.40;;
26920;SDS011;14483;47.844;9.660;2023-08-12T12:56:03;6.05;;;3.95;;
26920;SDS011;14483;47.844;9.660;2023-08-12T12:58:30;6.68;;;3.70;;
26920;SDS011;14483;47.844;9.660;2023-08-12T13:00:56;7.30;;;4.03;;
26920;SDS011;14483;47.844;9.660;2023-08-12T13:03:23;8.05;;;4.10;;
26920;SDS011;14483;47.844;9.660;2023-08-12T13:05:50;6.88;;;4.10;;
26920;SDS011;14483;47.844;9.660;2023-08-12T13:08:17;4.70;;;3.97;;
26920;SDS011;14483;47.844;9.660;2023-08-12T13:10:43;5.32;;;3.65;;
26920;SDS011;14483;47.844;9.660;2023-08-12T13:13:10;7.45;;;3.80;;
26920;SDS011;14483;47.844;9.660;2023-08-12T13:15:36;8.70;;;7.10;;
26920;SDS011;14483;47.844;9.660;2023-08-12T13:18:03;7.63;;;5.95;;
26920;SDS011;14483;47.844;9.660;2023-08-12T13:20:29;8.20;;;4.07;;
26920;SDS011;14483;47.844;9.660;2023-08-12T13:22:57;4.93;;;4.05;;
26920;SDS011;14483;47.844;9.660;2023-08-12T13:25:23;6.65;;;4.30;;
26920;SDS011;14483;47.844;9.660;2023-08-12T13:27:49;5.50;;;3.47;;
26920;SDS011;14483;47.844;9.660;2023-08-12T13:30:16;7.80;;;4.10;;
26920;SDS011;14483;47.844;9.660;2023-08-12T13:32:42;5.50;;;4.18;;
26920;SDS011;14483;47.844;9.660;2023-08-12T13:35:08;6.60;;;4.10;;
26920;SDS011;14483;47.844;9.660;2023-08-12T13:37:36;7.68;;;4.68;;
26920;SDS011;14483;47.844;9.660;2023-08-12T13:40:04;6.38;;;4.85;;
26920;SDS011;14483;47.844;9.660;2023-08-12T13:42:31;5.75;;;4.10;;
26920;SDS011;14483;47.844;9.660;2023-08-12T13:44:57;5.10;;;4.00;;
26920;SDS011;14483;47.844;9.660;2023-08-12T13:47:23;8.23;;;4.30;;
26920;SDS011;14483;47.844;9.660;2023-08-12T13:49:50;5.60;;;4.32;;
26920;SDS011;14483;47.844;9.660;2023-08-12T13:52:16;7.00;;;3.63;;
26920;SDS011;14483;47.844;9.660;2023-08-12T13:54:43;5.13;;;3.67;;
26920;SDS011;14483;47.844;9.660;2023-08-12T13:57:10;7.53;;;3.60;;
26920;SDS011;14483;47.844;9.660;2023-08-12T13:59:37;7.50;;;3.42;;
26920;SDS011;14483;47.844;9.660;2023-08-12T14:02:05;6.05;;;3.40;;
26920;SDS011;14483;47.844;9.660;2023-08-12T14:04:32;5.47;;;3.80;;
26920;SDS011;14483;47.844;9.660;2023-08-12T14:06:58;6.65;;;3.83;;
26920;SDS011;14483;47.844;9.660;2023-08-12T14:09:24;6.82;;;3.80;;
26920;SDS011;14483;47.844;9.660;2023-08-12T14:11:51;7.80;;;3.97;;
26920;SDS011;14483;47.844;9.660;2023-08-12T14:14:18;6.78;;;4.05;;
26920;SDS011;14483;47.844;9.660;2023-08-12T14:16:45;7.00;;;3.50;;
26920;SDS011;14483;47.844;9.660;2023-08-12T14:19:11;7.32;;;3.78;;
26920;SDS011;14483;47.844;9.660;2023-08-12T14:21:41;5.53;;;3.47;;
26920;SDS011;14483;47.844;9.660;2023-08-12T14:24:07;5.13;;;2.97;;
26920;SDS011;14483;47.844;9.660;2023-08-12T14:26:34;10.20;;;7.40;;
26920;SDS011;14483;47.844;9.660;2023-08-12T14:29:01;7.68;;;3.70;;
26920;SDS011;14483;47.844;9.660;2023-08-12T14:31:29;5.05;;;3.25;;
26920;SDS011;14483;47.844;9.660;2023-08-12T14:33:55;5.43;;;3.17;;
26920;SDS011;14483;47.844;9.660;2023-08-12T14:36:21;6.07;;;2.90;;
26920;SDS011;14483;47.844;9.660;2023-08-12T14:38:49;3.33;;;2.40;;
26920;SDS011;14483;47.844;9.660;2023-08-12T14:41:16;4.55;;;3.13;;
26920;SDS011;14483;47.844;9.660;2023-08-12T14:43:42;5.88;;;2.85;;
26920;SDS011;14483;47.844;9.660;2023-08-12T14:46:08;4.35;;;3.00;;